sensor_id;sensor_type;location;lat;lon;timestamp;temperature;humidity
17421;DHT22;8828;48.800;9.540;2023-03-23T00:01:11;14.40;83.10
17421;DHT22;8828;48.800;9.540;2023-03-23T00:03:46;14.40;82.50
17421;DHT22;8828;48.800;9.540;2023-03-23T00:06:13;14.40;82.60
17421;DHT22;8828;48.800;9.540;2023-03-23T00:08:45;14.40;82.30
17421;DHT22;8828;48.800;9.540;2023-03-23T00:11:13;14.40;82.90
17421;DHT22;8828;48.800;9.540;2023-03-23T00:13:42;14.40;83.50
17421;DHT22;8828;48.800;9.540;2023-03-23T00:16:10;14.40;84.60
17421;DHT22;8828;48.800;9.540;2023-03-23T00:18:44;14.40;83.90
17421;DHT22;8828;48.800;9.540;2023-03-23T00:21:11;14.40;83.70
17421;DHT22;8828;48.800;9.540;2023-03-23T00:23:38;14.40;84.40
17421;DHT22;8828;48.800;9.540;2023-03-23T00:26:06;14.40;85.30
17421;DHT22;8828;48.800;9.540;2023-03-23T00:28:34;14.30;85.90
17421;DHT22;8828;48.800;9.540;2023-03-23T00:31:02;14.40;86.00
17421;DHT22;8828;48.800;9.540;2023-03-23T00:33:30;14.40;86.70
17421;DHT22;8828;48.800;9.540;2023-03-23T00:35:59;14.40;87.60
17421;DHT22;8828;48.800;9.540;2023-03-23T00:38:26;14.40;87.70
17421;DHT22;8828;48.800;9.540;2023-03-23T00:40:53;14.40;88.40
17421;DHT22;8828;48.800;9.540;2023-03-23T00:43:24;14.40;86.90
17421;DHT22;8828;48.800;9.540;2023-03-23T00:45:55;14.40;86.80
17421;DHT22;8828;48.800;9.540;2023-03-23T00:48:23;14.40;86.80
17421;DHT22;8828;48.800;9.540;2023-03-23T00:50:50;14.40;87.00
17421;DHT22;8828;48.800;9.540;2023-03-23T00:53:18;14.50;88.30
17421;DHT22;8828;48.800;9.540;2023-03-23T00:55:46;14.50;89.60
17421;DHT22;8828;48.800;9.540;2023-03-23T00:58:14;14.40;90.00
17421;DHT22;8828;48.800;9.540;2023-03-23T01:00:43;14.40;89.40
17421;DHT22;8828;48.800;9.540;2023-03-23T01:03:10;14.40;90.10
17421;DHT22;8828;48.800;9.540;2023-03-23T01:05:44;14.40;90.40
17421;DHT22;8828;48.800;9.540;2023-03-23T01:08:13;14.40;90.30
17421;DHT22;8828;48.800;9.540;2023-03-23T01:10:40;14.40;89.70
17421;DHT22;8828;48.800;9.540;2023-03-23T01:13:07;14.40;89.70
17421;DHT22;8828;48.800;9.540;2023-03-23T01:15:34;14.40;89.70
17421;DHT22;8828;48.800;9.540;2023-03-23T01:18:03;14.40;90.30
17421;DHT22;8828;48.800;9.540;2023-03-23T01:20:31;14.40;90.10
17421;DHT22;8828;48.800;9.540;2023-03-23T01:22:58;14.30;90.40
17421;DHT22;8828;48.800;9.540;2023-03-23T01:25:27;14.30;90.70
17421;DHT22;8828;48.800;9.540;2023-03-23T01:27:54;14.30;90.90
17421;DHT22;8828;48.800;9.540;2023-03-23T01:30:21;14.40;91.10
17421;DHT22;8828;48.800;9.540;2023-03-23T01:32:48;14.30;91.00
17421;DHT22;8828;48.800;9.540;2023-03-23T01:35:17;14.30;91.00
17421;DHT22;8828;48.800;9.540;2023-03-23T01:37:44;14.30;91.20
17421;DHT22;8828;48.800;9.540;2023-03-23T01:40:11;14.40;91.30
17421;DHT22;8828;48.800;9.540;2023-03-23T01:42:38;14.40;91.20
17421;DHT22;8828;48.800;9.540;2023-03-23T01:45:31;14.40;91.30
17421;DHT22;8828;48.800;9.540;2023-03-23T01:48:04;14.40;91.90
17421;DHT22;8828;48.800;9.540;2023-03-23T01:50:37;14.40;92.10
17421;DHT22;8828;48.800;9.540;2023-03-23T01:53:08;14.40;92.10
17421;DHT22;8828;48.800;9.540;2023-03-23T01:55:38;14.40;92.20
17421;DHT22;8828;48.800;9.540;2023-03-23T01:58:07;14.30;92.40
17421;DHT22;8828;48.800;9.540;2023-03-23T02:00:35;14.20;92.70
17421;DHT22;8828;48.800;9.540;2023-03-23T02:03:03;14.20;93.10
17421;DHT22;8828;48.800;9.540;2023-03-23T02:05:34;14.10;93.40
17421;DHT22;8828;48.800;9.540;2023-03-23T02:08:04;14.10;93.60
17421;DHT22;8828;48.800;9.540;2023-03-23T02:10:32;14.10;93.80
17421;DHT22;8828;48.800;9.540;2023-03-23T02:13:03;14.10;94.00
17421;DHT22;8828;48.800;9.540;2023-03-23T02:15:37;14.00;94.40
17421;DHT22;8828;48.800;9.540;2023-03-23T02:18:10;14.00;94.80
17421;DHT22;8828;48.800;9.540;2023-03-23T02:26:59;13.80;96.30
17421;DHT22;8828;48.800;9.540;2023-03-23T02:29:42;13.90;96.80
17421;DHT22;8828;48.800;9.540;2023-03-23T02:32:20;13.90;97.10
17421;DHT22;8828;48.800;9.540;2023-03-23T02:34:51;13.90;97.40
17421;DHT22;8828;48.800;9.540;2023-03-23T02:37:24;13.80;97.70
17421;DHT22;8828;48.800;9.540;2023-03-23T02:39:56;13.80;97.90
17421;DHT22;8828;48.800;9.540;2023-03-23T02:42:27;13.80;98.30
17421;DHT22;8828;48.800;9.540;2023-03-23T02:44:58;13.80;98.70
17421;DHT22;8828;48.800;9.540;2023-03-23T02:47:29;13.80;99.50
17421;DHT22;8828;48.800;9.540;2023-03-23T02:49:58;13.80;99.40
17421;DHT22;8828;48.800;9.540;2023-03-23T02:52:27;13.80;99.60
17421;DHT22;8828;48.800;9.540;2023-03-23T02:54:56;13.80;99.90
17421;DHT22;8828;48.800;9.540;2023-03-23T02:57:26;13.80;99.90
17421;DHT22;8828;48.800;9.540;2023-03-23T02:59:53;13.80;99.90
17421;DHT22;8828;48.800;9.540;2023-03-23T03:02:23;13.80;99.90
17421;DHT22;8828;48.800;9.540;2023-03-23T03:04:56;13.80;99.90
17421;DHT22;8828;48.800;9.540;2023-03-23T03:07:35;13.80;99.90
17421;DHT22;8828;48.800;9.540;2023-03-23T03:10:08;13.80;99.90
17421;DHT22;8828;48.800;9.540;2023-03-23T03:12:44;13.80;99.90
17421;DHT22;8828;48.800;9.540;2023-03-23T03:15:21;13.80;99.90
17421;DHT22;8828;48.800;9.540;2023-03-23T03:17:54;13.70;99.90
17421;DHT22;8828;48.800;9.540;2023-03-23T03:20:24;13.70;99.90
17421;DHT22;8828;48.800;9.540;2023-03-23T03:22:54;13.70;99.90
17421;DHT22;8828;48.800;9.540;2023-03-23T03:25:22;13.70;99.90
17421;DHT22;8828;48.800;9.540;2023-03-23T03:27:50;13.70;99.90
17421;DHT22;8828;48.800;9.540;2023-03-23T03:30:20;13.70;99.90
17421;DHT22;8828;48.800;9.540;2023-03-23T03:32:52;13.70;99.90
17421;DHT22;8828;48.800;9.540;2023-03-23T03:35:21;13.70;99.90
17421;DHT22;8828;48.800;9.540;2023-03-23T03:37:48;13.70;99.90
17421;DHT22;8828;48.800;9.540;2023-03-23T03:40:20;13.70;99.90
17421;DHT22;8828;48.800;9.540;2023-03-23T03:42:47;13.60;99.90
17421;DHT22;8828;48.800;9.540;2023-03-23T03:45:17;13.60;99.90
17421;DHT22;8828;48.800;9.540;2023-03-23T03:47:44;13.60;99.90
17421;DHT22;8828;48.800;9.540;2023-03-23T03:50:11;13.60;99.90
17421;DHT22;8828;48.800;9.540;2023-03-23T03:52:38;13.60;99.90
17421;DHT22;8828;48.800;9.540;2023-03-23T03:55:06;13.50;99.90
17421;DHT22;8828;48.800;9.540;2023-03-23T03:57:35;13.50;99.90
17421;DHT22;8828;48.800;9.540;2023-03-23T04:00:03;13.60;99.90
17421;DHT22;8828;48.800;9.540;2023-03-23T04:02:40;13.50;99.90
17421;DHT22;8828;48.800;9.540;2023-03-23T04:05:07;13.50;99.90
17421;DHT22;8828;48.800;9.540;2023-03-23T04:07:35;13.60;99.90
17421;DHT22;8828;48.800;9.540;2023-03-23T04:10:05;13.60;99.90
17421;DHT22;8828;48.800;9.540;2023-03-23T04:12:32;13.50;99.90
17421;DHT22;8828;48.800;9.540;2023-03-23T04:15:01;13.50;99.90
17421;DHT22;8828;48.800;9.540;2023-03-23T04:17:28;13.50;99.90
17421;DHT22;8828;48.800;9.540;2023-03-23T04:19:55;13.50;99.90
17421;DHT22;8828;48.800;9.540;2023-03-23T04:22:23;13.50;99.90
17421;DHT22;8828;48.800;9.540;2023-03-23T04:24:57;13.50;99.90
17421;DHT22;8828;48.800;9.540;2023-03-23T04:27:26;13.50;99.90
17421;DHT22;8828;48.800;9.540;2023-03-23T04:29:54;13.50;99.90
17421;DHT22;8828;48.800;9.540;2023-03-23T04:32:23;13.50;99.90
17421;DHT22;8828;48.800;9.540;2023-03-23T04:34:50;13.50;99.90
17421;DHT22;8828;48.800;9.540;2023-03-23T04:37:17;13.50;99.90
17421;DHT22;8828;48.800;9.540;2023-03-23T04:39:44;13.50;99.90
17421;DHT22;8828;48.800;9.540;2023-03-23T04:42:12;13.50;99.90
17421;DHT22;8828;48.800;9.540;2023-03-23T04:44:40;13.50;99.90
17421;DHT22;8828;48.800;9.540;2023-03-23T04:47:09;13.50;99.90
17421;DHT22;8828;48.800;9.540;2023-03-23T04:49:37;13.50;99.90
17421;DHT22;8828;48.800;9.540;2023-03-23T04:52:04;13.50;99.90
17421;DHT22;8828;48.800;9.540;2023-03-23T04:54:31;13.50;99.90
17421;DHT22;8828;48.800;9.540;2023-03-23T04:56:58;13.50;99.90
17421;DHT22;8828;48.800;9.540;2023-03-23T04:59:25;13.60;99.90
17421;DHT22;8828;48.800;9.540;2023-03-23T05:01:53;13.60;99.90
17421;DHT22;8828;48.800;9.540;2023-03-23T05:04:21;13.50;99.90
17421;DHT22;8828;48.800;9.540;2023-03-23T05:06:52;13.50;99.90
17421;DHT22;8828;48.800;9.540;2023-03-23T05:09:19;13.50;99.90
17421;DHT22;8828;48.800;9.540;2023-03-23T05:11:46;13.50;99.90
17421;DHT22;8828;48.800;9.540;2023-03-23T05:14:13;13.60;99.90
17421;DHT22;8828;48.800;9.540;2023-03-23T05:16:40;13.60;99.90
17421;DHT22;8828;48.800;9.540;2023-03-23T05:19:07;13.50;99.90
17421;DHT22;8828;48.800;9.540;2023-03-23T05:21:34;13.60;99.90
17421;DHT22;8828;48.800;9.540;2023-03-23T05:24:05;13.50;99.90
17421;DHT22;8828;48.800;9.540;2023-03-23T05:26:32;13.50;99.90
17421;DHT22;8828;48.800;9.540;2023-03-23T05:28:58;13.60;99.90
17421;DHT22;8828;48.800;9.540;2023-03-23T05:31:25;13.60;99.90
17421;DHT22;8828;48.800;9.540;2023-03-23T05:33:52;13.60;99.90
17421;DHT22;8828;48.800;9.540;2023-03-23T05:36:19;13.60;99.90
17421;DHT22;8828;48.800;9.540;2023-03-23T05:38:48;13.60;99.90
17421;DHT22;8828;48.800;9.540;2023-03-23T05:41:18;13.60;99.90
17421;DHT22;8828;48.800;9.540;2023-03-23T05:43:45;13.60;99.90
17421;DHT22;8828;48.800;9.540;2023-03-23T05:46:12;13.60;99.90
17421;DHT22;8828;48.800;9.540;2023-03-23T05:48:40;13.60;99.90
17421;DHT22;8828;48.800;9.540;2023-03-23T05:51:07;13.60;99.90
17421;DHT22;8828;48.800;9.540;2023-03-23T05:53:34;13.60;99.90
17421;DHT22;8828;48.800;9.540;2023-03-23T05:56:01;13.60;99.90
17421;DHT22;8828;48.800;9.540;2023-03-23T05:58:30;13.60;99.90
17421;DHT22;8828;48.800;9.540;2023-03-23T06:00:58;13.60;99.90
17421;DHT22;8828;48.800;9.540;2023-03-23T06:03:25;13.60;99.90
17421;DHT22;8828;48.800;9.540;2023-03-23T06:05:52;13.60;99.90
17421;DHT22;8828;48.800;9.540;2023-03-23T06:08:19;13.60;99.90
17421;DHT22;8828;48.800;9.540;2023-03-23T06:10:45;13.60;99.90
17421;DHT22;8828;48.800;9.540;2023-03-23T06:13:13;13.60;99.90
17421;DHT22;8828;48.800;9.540;2023-03-23T06:15:41;13.60;99.90
17421;DHT22;8828;48.800;9.540;2023-03-23T06:18:09;13.70;99.90
17421;DHT22;8828;48.800;9.540;2023-03-23T06:20:36;13.70;99.90
17421;DHT22;8828;48.800;9.540;2023-03-23T06:23:02;13.70;99.90
17421;DHT22;8828;48.800;9.540;2023-03-23T06:25:30;13.70;99.90
17421;DHT22;8828;48.800;9.540;2023-03-23T06:27:57;13.80;99.90
17421;DHT22;8828;48.800;9.540;2023-03-23T06:30:24;13.80;99.90
17421;DHT22;8828;48.800;9.540;2023-03-23T06:32:53;13.80;99.90
17421;DHT22;8828;48.800;9.540;2023-03-23T06:35:21;13.80;99.90
17421;DHT22;8828;48.800;9.540;2023-03-23T06:37:48;13.90;99.90
17421;DHT22;8828;48.800;9.540;2023-03-23T06:40:15;13.90;99.90
17421;DHT22;8828;48.800;9.540;2023-03-23T06:42:44;13.90;99.90
17421;DHT22;8828;48.800;9.540;2023-03-23T06:45:11;13.90;99.90
17421;DHT22;8828;48.800;9.540;2023-03-23T06:47:38;14.00;99.90
17421;DHT22;8828;48.800;9.540;2023-03-23T06:50:07;14.00;99.90
17421;DHT22;8828;48.800;9.540;2023-03-23T06:52:34;14.00;99.90
17421;DHT22;8828;48.800;9.540;2023-03-23T06:55:01;14.00;99.90
17421;DHT22;8828;48.800;9.540;2023-03-23T06:57:28;14.00;99.90
17421;DHT22;8828;48.800;9.540;2023-03-23T06:59:55;13.90;99.90
17421;DHT22;8828;48.800;9.540;2023-03-23T07:02:22;13.90;99.90
17421;DHT22;8828;48.800;9.540;2023-03-23T07:04:49;13.90;99.90
17421;DHT22;8828;48.800;9.540;2023-03-23T07:07:17;13.90;99.90
17421;DHT22;8828;48.800;9.540;2023-03-23T07:09:44;13.90;99.90
17421;DHT22;8828;48.800;9.540;2023-03-23T07:12:11;14.00;99.90
17421;DHT22;8828;48.800;9.540;2023-03-23T07:14:39;14.00;99.90
17421;DHT22;8828;48.800;9.540;2023-03-23T07:17:06;14.10;99.90
17421;DHT22;8828;48.800;9.540;2023-03-23T07:19:34;14.20;99.90
17421;DHT22;8828;48.800;9.540;2023-03-23T07:22:03;14.30;99.90
17421;DHT22;8828;48.800;9.540;2023-03-23T07:24:32;14.40;99.90
17421;DHT22;8828;48.800;9.540;2023-03-23T07:26:59;14.40;99.90
17421;DHT22;8828;48.800;9.540;2023-03-23T07:29:26;14.50;99.90
17421;DHT22;8828;48.800;9.540;2023-03-23T07:31:53;14.60;99.90
17421;DHT22;8828;48.800;9.540;2023-03-23T07:34:20;14.60;99.90
17421;DHT22;8828;48.800;9.540;2023-03-23T07:36:47;14.70;99.90
17421;DHT22;8828;48.800;9.540;2023-03-23T07:39:14;14.70;99.90
17421;DHT22;8828;48.800;9.540;2023-03-23T07:41:43;14.70;99.90
17421;DHT22;8828;48.800;9.540;2023-03-23T07:44:09;14.60;99.90
17421;DHT22;8828;48.800;9.540;2023-03-23T07:46:36;14.60;99.90
17421;DHT22;8828;48.800;9.540;2023-03-23T07:49:04;14.60;99.90
17421;DHT22;8828;48.800;9.540;2023-03-23T07:51:31;14.50;99.90
17421;DHT22;8828;48.800;9.540;2023-03-23T07:53:58;14.50;99.90
17421;DHT22;8828;48.800;9.540;2023-03-23T07:56:25;14.50;99.90
17421;DHT22;8828;48.800;9.540;2023-03-23T07:58:53;14.40;99.90
17421;DHT22;8828;48.800;9.540;2023-03-23T08:01:34;14.50;99.90
17421;DHT22;8828;48.800;9.540;2023-03-23T08:04:01;14.50;99.90
17421;DHT22;8828;48.800;9.540;2023-03-23T08:06:28;14.50;99.90
17421;DHT22;8828;48.800;9.540;2023-03-23T08:08:55;14.50;99.90
17421;DHT22;8828;48.800;9.540;2023-03-23T08:11:22;14.60;99.90
17421;DHT22;8828;48.800;9.540;2023-03-23T08:13:49;14.70;99.90
17421;DHT22;8828;48.800;9.540;2023-03-23T08:16:17;14.70;99.90
17421;DHT22;8828;48.800;9.540;2023-03-23T08:18:44;14.90;99.90
17421;DHT22;8828;48.800;9.540;2023-03-23T08:21:12;15.00;99.90
17421;DHT22;8828;48.800;9.540;2023-03-23T08:23:39;15.20;99.90
17421;DHT22;8828;48.800;9.540;2023-03-23T08:26:07;15.30;99.90
17421;DHT22;8828;48.800;9.540;2023-03-23T08:28:35;15.50;99.90
17421;DHT22;8828;48.800;9.540;2023-03-23T08:31:06;15.70;99.90
17421;DHT22;8828;48.800;9.540;2023-03-23T08:33:34;15.80;99.90
17421;DHT22;8828;48.800;9.540;2023-03-23T08:36:02;16.10;99.90
17421;DHT22;8828;48.800;9.540;2023-03-23T08:38:30;16.30;99.90
17421;DHT22;8828;48.800;9.540;2023-03-23T08:40:58;16.60;99.90
17421;DHT22;8828;48.800;9.540;2023-03-23T08:43:25;16.90;99.90
17421;DHT22;8828;48.800;9.540;2023-03-23T08:45:52;17.20;99.90
17421;DHT22;8828;48.800;9.540;2023-03-23T08:48:19;17.30;99.90
17421;DHT22;8828;48.800;9.540;2023-03-23T08:50:48;17.40;99.90
17421;DHT22;8828;48.800;9.540;2023-03-23T08:53:16;17.40;99.90
17421;DHT22;8828;48.800;9.540;2023-03-23T08:55:43;17.40;99.90
17421;DHT22;8828;48.800;9.540;2023-03-23T08:58:10;17.40;99.90
17421;DHT22;8828;48.800;9.540;2023-03-23T09:00:37;17.30;99.90
17421;DHT22;8828;48.800;9.540;2023-03-23T09:03:05;17.40;99.90
17421;DHT22;8828;48.800;9.540;2023-03-23T09:05:32;17.40;99.90
17421;DHT22;8828;48.800;9.540;2023-03-23T09:08:00;17.30;99.50
17421;DHT22;8828;48.800;9.540;2023-03-23T09:10:29;17.20;99.60
17421;DHT22;8828;48.800;9.540;2023-03-23T09:12:57;17.20;99.80
17421;DHT22;8828;48.800;9.540;2023-03-23T09:15:24;17.10;99.70
17421;DHT22;8828;48.800;9.540;2023-03-23T09:17:52;16.90;99.90
17421;DHT22;8828;48.800;9.540;2023-03-23T09:20:22;16.90;99.80
17421;DHT22;8828;48.800;9.540;2023-03-23T09:22:51;16.80;99.80
17421;DHT22;8828;48.800;9.540;2023-03-23T09:25:21;16.80;99.90
17421;DHT22;8828;48.800;9.540;2023-03-23T09:27:51;16.80;99.90
17421;DHT22;8828;48.800;9.540;2023-03-23T09:30:22;16.80;99.90
17421;DHT22;8828;48.800;9.540;2023-03-23T09:32:50;16.90;99.90
17421;DHT22;8828;48.800;9.540;2023-03-23T09:35:17;16.90;99.90
17421;DHT22;8828;48.800;9.540;2023-03-23T09:37:47;17.00;99.80
17421;DHT22;8828;48.800;9.540;2023-03-23T09:40:17;17.10;99.80
17421;DHT22;8828;48.800;9.540;2023-03-23T09:42:57;17.30;99.50
17421;DHT22;8828;48.800;9.540;2023-03-23T09:45:28;17.30;99.30
17421;DHT22;8828;48.800;9.540;2023-03-23T09:48:12;17.40;99.10
17421;DHT22;8828;48.800;9.540;2023-03-23T09:50:43;17.50;98.90
17421;DHT22;8828;48.800;9.540;2023-03-23T09:53:15;17.50;98.90
17421;DHT22;8828;48.800;9.540;2023-03-23T09:55:44;17.50;98.60
17421;DHT22;8828;48.800;9.540;2023-03-23T09:58:18;17.60;98.60
17421;DHT22;8828;48.800;9.540;2023-03-23T10:00:53;17.60;98.80
17421;DHT22;8828;48.800;9.540;2023-03-23T10:03:25;17.70;98.60
17421;DHT22;8828;48.800;9.540;2023-03-23T10:05:54;17.70;98.50
17421;DHT22;8828;48.800;9.540;2023-03-23T10:08:24;17.70;98.30
17421;DHT22;8828;48.800;9.540;2023-03-23T10:10:59;17.60;98.10
17421;DHT22;8828;48.800;9.540;2023-03-23T10:13:40;17.60;98.60
17421;DHT22;8828;48.800;9.540;2023-03-23T10:16:14;17.70;99.00
17421;DHT22;8828;48.800;9.540;2023-03-23T10:18:46;17.70;99.10
17421;DHT22;8828;48.800;9.540;2023-03-23T10:21:20;17.60;98.80
17421;DHT22;8828;48.800;9.540;2023-03-23T10:23:53;17.60;98.70
17421;DHT22;8828;48.800;9.540;2023-03-23T10:26:38;17.50;98.60
17421;DHT22;8828;48.800;9.540;2023-03-23T10:29:16;17.50;98.80
17421;DHT22;8828;48.800;9.540;2023-03-23T10:31:47;17.60;98.80
17421;DHT22;8828;48.800;9.540;2023-03-23T10:34:21;17.70;98.50
17421;DHT22;8828;48.800;9.540;2023-03-23T10:36:55;17.70;98.40
17421;DHT22;8828;48.800;9.540;2023-03-23T10:39:26;17.70;97.80
17421;DHT22;8828;48.800;9.540;2023-03-23T10:41:54;17.60;97.80
17421;DHT22;8828;48.800;9.540;2023-03-23T10:44:24;17.60;97.90
17421;DHT22;8828;48.800;9.540;2023-03-23T10:46:58;17.60;97.70
17421;DHT22;8828;48.800;9.540;2023-03-23T10:49:28;17.60;97.80
17421;DHT22;8828;48.800;9.540;2023-03-23T10:52:20;17.50;97.90
17421;DHT22;8828;48.800;9.540;2023-03-23T10:54:51;17.50;98.00
17421;DHT22;8828;48.800;9.540;2023-03-23T10:57:22;17.50;98.30
17421;DHT22;8828;48.800;9.540;2023-03-23T10:59:57;17.50;98.10
17421;DHT22;8828;48.800;9.540;2023-03-23T11:02:24;17.50;98.30
17421;DHT22;8828;48.800;9.540;2023-03-23T11:04:58;17.40;98.80
17421;DHT22;8828;48.800;9.540;2023-03-23T11:07:28;17.30;98.50
17421;DHT22;8828;48.800;9.540;2023-03-23T11:09:59;17.40;98.40
17421;DHT22;8828;48.800;9.540;2023-03-23T11:12:34;17.40;98.40
17421;DHT22;8828;48.800;9.540;2023-03-23T11:15:25;17.50;98.50
17421;DHT22;8828;48.800;9.540;2023-03-23T11:18:02;17.50;97.80
17421;DHT22;8828;48.800;9.540;2023-03-23T11:20:34;17.60;97.80
17421;DHT22;8828;48.800;9.540;2023-03-23T11:23:07;17.70;97.80
17421;DHT22;8828;48.800;9.540;2023-03-23T11:25:39;17.80;97.80
17421;DHT22;8828;48.800;9.540;2023-03-23T11:28:14;17.90;97.60
17421;DHT22;8828;48.800;9.540;2023-03-23T11:30:42;18.00;97.20
17421;DHT22;8828;48.800;9.540;2023-03-23T11:33:10;18.20;96.80
17421;DHT22;8828;48.800;9.540;2023-03-23T11:35:43;18.40;96.60
17421;DHT22;8828;48.800;9.540;2023-03-23T11:38:16;18.50;96.70
17421;DHT22;8828;48.800;9.540;2023-03-23T11:40:47;18.60;96.30
17421;DHT22;8828;48.800;9.540;2023-03-23T11:43:18;18.60;96.20
17421;DHT22;8828;48.800;9.540;2023-03-23T11:45:50;18.50;96.70
17421;DHT22;8828;48.800;9.540;2023-03-23T11:48:26;18.40;97.00
17421;DHT22;8828;48.800;9.540;2023-03-23T11:50:57;18.40;96.90
17421;DHT22;8828;48.800;9.540;2023-03-23T11:53:33;18.30;97.50
17421;DHT22;8828;48.800;9.540;2023-03-23T11:56:09;18.30;97.70
17421;DHT22;8828;48.800;9.540;2023-03-23T11:58:37;18.40;98.00
17421;DHT22;8828;48.800;9.540;2023-03-23T12:01:13;18.40;98.70
17421;DHT22;8828;48.800;9.540;2023-03-23T12:06:50;18.40;98.20
17421;DHT22;8828;48.800;9.540;2023-03-23T12:09:35;18.50;98.30
17421;DHT22;8828;48.800;9.540;2023-03-23T12:12:11;18.50;97.90
17421;DHT22;8828;48.800;9.540;2023-03-23T12:14:46;18.70;97.90
17421;DHT22;8828;48.800;9.540;2023-03-23T12:17:23;18.80;98.10
17421;DHT22;8828;48.800;9.540;2023-03-23T12:20:01;18.80;97.00
17421;DHT22;8828;48.800;9.540;2023-03-23T12:22:49;18.90;96.30
17421;DHT22;8828;48.800;9.540;2023-03-23T12:25:44;19.00;96.10
17421;DHT22;8828;48.800;9.540;2023-03-23T12:28:24;19.00;95.40
17421;DHT22;8828;48.800;9.540;2023-03-23T12:31:01;19.00;95.10
17421;DHT22;8828;48.800;9.540;2023-03-23T12:33:38;19.00;95.10
17421;DHT22;8828;48.800;9.540;2023-03-23T12:36:20;19.00;94.70
17421;DHT22;8828;48.800;9.540;2023-03-23T12:39:10;19.00;94.80
17421;DHT22;8828;48.800;9.540;2023-03-23T12:41:47;19.00;95.20
17421;DHT22;8828;48.800;9.540;2023-03-23T12:44:19;18.90;95.30
17421;DHT22;8828;48.800;9.540;2023-03-23T12:47:03;18.80;95.50
17421;DHT22;8828;48.800;9.540;2023-03-23T12:49:39;18.70;95.70
17421;DHT22;8828;48.800;9.540;2023-03-23T12:52:14;18.50;95.50
17421;DHT22;8828;48.800;9.540;2023-03-23T12:54:47;18.50;95.80
17421;DHT22;8828;48.800;9.540;2023-03-23T12:57:22;18.50;96.10
17421;DHT22;8828;48.800;9.540;2023-03-23T12:59:57;18.60;96.20
17421;DHT22;8828;48.800;9.540;2023-03-23T13:02:30;18.60;95.70
17421;DHT22;8828;48.800;9.540;2023-03-23T13:05:02;18.60;95.20
17421;DHT22;8828;48.800;9.540;2023-03-23T13:07:37;18.60;95.20
17421;DHT22;8828;48.800;9.540;2023-03-23T13:10:15;18.70;95.10
17421;DHT22;8828;48.800;9.540;2023-03-23T13:12:46;18.80;94.90
17421;DHT22;8828;48.800;9.540;2023-03-23T13:15:24;18.90;94.40
17421;DHT22;8828;48.800;9.540;2023-03-23T13:17:58;18.90;94.60
17421;DHT22;8828;48.800;9.540;2023-03-23T13:20:39;18.80;97.90
17421;DHT22;8828;48.800;9.540;2023-03-23T13:23:11;18.70;98.90
17421;DHT22;8828;48.800;9.540;2023-03-23T13:25:51;18.60;99.30
17421;DHT22;8828;48.800;9.540;2023-03-23T13:28:20;18.50;99.90
17421;DHT22;8828;48.800;9.540;2023-03-23T13:31:00;18.40;99.90
17421;DHT22;8828;48.800;9.540;2023-03-23T13:33:30;18.40;99.90
17421;DHT22;8828;48.800;9.540;2023-03-23T13:36:05;18.30;99.90
17421;DHT22;8828;48.800;9.540;2023-03-23T13:38:35;18.30;99.90
17421;DHT22;8828;48.800;9.540;2023-03-23T13:41:11;18.20;99.90
17421;DHT22;8828;48.800;9.540;2023-03-23T13:43:41;18.20;99.90
17421;DHT22;8828;48.800;9.540;2023-03-23T13:46:23;18.10;99.90
17421;DHT22;8828;48.800;9.540;2023-03-23T13:49:03;18.10;99.90
17421;DHT22;8828;48.800;9.540;2023-03-23T13:51:51;18.10;99.90
17421;DHT22;8828;48.800;9.540;2023-03-23T13:54:25;18.10;99.90
17421;DHT22;8828;48.800;9.540;2023-03-23T13:56:57;18.10;99.90
17421;DHT22;8828;48.800;9.540;2023-03-23T13:59:33;18.00;99.90
17421;DHT22;8828;48.800;9.540;2023-03-23T14:02:30;18.00;99.90
17421;DHT22;8828;48.800;9.540;2023-03-23T14:05:11;18.00;99.90
17421;DHT22;8828;48.800;9.540;2023-03-23T14:07:57;18.00;99.90
17421;DHT22;8828;48.800;9.540;2023-03-23T14:10:31;18.00;99.90
17421;DHT22;8828;48.800;9.540;2023-03-23T14:13:00;18.00;99.90
17421;DHT22;8828;48.800;9.540;2023-03-23T14:15:29;17.90;99.90
17421;DHT22;8828;48.800;9.540;2023-03-23T14:17:56;17.80;99.90
17421;DHT22;8828;48.800;9.540;2023-03-23T14:20:29;17.80;99.90
17421;DHT22;8828;48.800;9.540;2023-03-23T14:22:59;17.70;99.90
17421;DHT22;8828;48.800;9.540;2023-03-23T14:25:30;17.60;99.90
17421;DHT22;8828;48.800;9.540;2023-03-23T14:27:58;17.60;99.90
17421;DHT22;8828;48.800;9.540;2023-03-23T14:30:27;17.60;99.90
17421;DHT22;8828;48.800;9.540;2023-03-23T14:33:04;17.50;99.90
17421;DHT22;8828;48.800;9.540;2023-03-23T14:35:34;17.40;99.90
17421;DHT22;8828;48.800;9.540;2023-03-23T14:38:03;17.40;99.90
17421;DHT22;8828;48.800;9.540;2023-03-23T14:40:31;17.30;99.90
17421;DHT22;8828;48.800;9.540;2023-03-23T14:42:59;17.30;99.90
17421;DHT22;8828;48.800;9.540;2023-03-23T14:45:26;17.20;99.90
17421;DHT22;8828;48.800;9.540;2023-03-23T14:47:56;17.20;99.90
17421;DHT22;8828;48.800;9.540;2023-03-23T14:50:26;17.20;99.90
17421;DHT22;8828;48.800;9.540;2023-03-23T14:53:09;17.20;99.90
17421;DHT22;8828;48.800;9.540;2023-03-23T14:55:37;17.10;99.90
17421;DHT22;8828;48.800;9.540;2023-03-23T14:58:08;17.10;99.90
17421;DHT22;8828;48.800;9.540;2023-03-23T15:00:38;17.10;99.90
17421;DHT22;8828;48.800;9.540;2023-03-23T15:03:10;17.10;99.90
17421;DHT22;8828;48.800;9.540;2023-03-23T15:05:42;17.10;99.90
17421;DHT22;8828;48.800;9.540;2023-03-23T15:08:14;17.10;99.90
17421;DHT22;8828;48.800;9.540;2023-03-23T15:10:42;17.10;99.90
17421;DHT22;8828;48.800;9.540;2023-03-23T15:13:11;17.20;99.90
17421;DHT22;8828;48.800;9.540;2023-03-23T15:15:39;17.20;99.90
17421;DHT22;8828;48.800;9.540;2023-03-23T15:18:22;17.20;98.40
17421;DHT22;8828;48.800;9.540;2023-03-23T15:20:52;17.20;97.30
17421;DHT22;8828;48.800;9.540;2023-03-23T15:23:27;17.20;96.70
17421;DHT22;8828;48.800;9.540;2023-03-23T15:25:55;17.30;96.40
17421;DHT22;8828;48.800;9.540;2023-03-23T15:28:29;17.30;96.10
17421;DHT22;8828;48.800;9.540;2023-03-23T15:30:59;17.30;95.90
17421;DHT22;8828;48.800;9.540;2023-03-23T15:33:26;17.30;95.60
17421;DHT22;8828;48.800;9.540;2023-03-23T15:35:56;17.30;95.50
17421;DHT22;8828;48.800;9.540;2023-03-23T15:38:26;17.30;95.20
17421;DHT22;8828;48.800;9.540;2023-03-23T15:40:57;17.30;95.20
17421;DHT22;8828;48.800;9.540;2023-03-23T15:43:26;17.30;94.60
17421;DHT22;8828;48.800;9.540;2023-03-23T15:45:55;17.30;94.10
17421;DHT22;8828;48.800;9.540;2023-03-23T15:48:26;17.30;94.10
17421;DHT22;8828;48.800;9.540;2023-03-23T15:50:54;17.30;94.00
17421;DHT22;8828;48.800;9.540;2023-03-23T15:53:30;17.30;94.00
17421;DHT22;8828;48.800;9.540;2023-03-23T15:55:59;17.30;93.90
17421;DHT22;8828;48.800;9.540;2023-03-23T15:58:28;17.30;93.90
17421;DHT22;8828;48.800;9.540;2023-03-23T16:00:57;17.30;93.90
17421;DHT22;8828;48.800;9.540;2023-03-23T16:03:29;17.30;93.80
17421;DHT22;8828;48.800;9.540;2023-03-23T16:06:00;17.30;93.80
17421;DHT22;8828;48.800;9.540;2023-03-23T16:08:30;17.30;93.80
17421;DHT22;8828;48.800;9.540;2023-03-23T16:10:58;17.20;93.80
17421;DHT22;8828;48.800;9.540;2023-03-23T16:13:26;17.20;94.00
17421;DHT22;8828;48.800;9.540;2023-03-23T16:15:54;17.10;93.90